sensor_id;sensor_type;location;lat;lon;timestamp;pressure;altitude;pressure_sealevel;temperature;humidity
62122;BME280;48108;47.532;19.084;2022-07-15T03:51:32;100083.09;;;24.29;42.94
62122;BME280;48108;47.532;19.084;2022-07-15T03:54:35;100076.22;;;24.21;44.11
62122;BME280;48108;47.532;19.084;2022-07-15T03:57:38;100105.37;;;23.96;45.86
62122;BME280;48108;47.532;19.084;2022-07-15T04:00:41;100110.00;;;23.81;45.87
62122;BME280;48108;47.532;19.084;2022-07-15T04:03:45;100121.56;;;23.77;46.60
62122;BME280;48108;47.532;19.084;2022-07-15T04:06:49;100126.44;;;23.55;50.43
62122;BME280;48108;47.532;19.084;2022-07-15T04:09:52;100132.34;;;23.26;51.97
62122;BME280;48108;47.532;19.084;2022-07-15T04:12:55;100122.16;;;23.17;51.75
62122;BME280;48108;47.532;19.084;2022-07-15T04:15:58;100130.62;;;23.10;53.05
62122;BME280;48108;47.532;19.084;2022-07-15T04:19:02;100130.09;;;23.13;52.53
62122;BME280;48108;47.532;19.084;2022-07-15T04:22:05;100126.88;;;23.26;51.63
62122;BME280;48108;47.532;19.084;2022-07-15T04:25:13;100133.78;;;23.39;49.72
62122;BME280;48108;47.532;19.084;2022-07-15T04:28:21;100126.13;;;23.46;49.32
62122;BME280;48108;47.532;19.084;2022-07-15T04:31:24;100142.06;;;23.54;48.27
62122;BME280;48108;47.532;19.084;2022-07-15T04:34:29;100150.34;;;23.65;47.83
62122;BME280;48108;47.532;19.084;2022-07-15T04:37:32;100140.47;;;23.64;47.60
62122;BME280;48108;47.532;19.084;2022-07-15T04:40:35;100149.59;;;23.74;47.57
62122;BME280;48108;47.532;19.084;2022-07-15T04:43:46;100163.31;;;23.74;47.93
62122;BME280;48108;47.532;19.084;2022-07-15T04:46:49;100188.00;;;23.59;48.70
62122;BME280;48108;47.532;19.084;2022-07-15T04:49:57;100178.63;;;23.55;49.24
62122;BME280;48108;47.532;19.084;2022-07-15T04:53:20;100181.62;;;23.43;50.09
62122;BME280;48108;47.532;19.084;2022-07-15T04:56:23;100190.63;;;22.91;55.92
62122;BME280;48108;47.532;19.084;2022-07-15T04:59:33;100196.87;;;21.73;63.16
62122;BME280;48108;47.532;19.084;2022-07-15T05:02:36;100222.66;;;20.94;68.47
62122;BME280;48108;47.532;19.084;2022-07-15T05:05:40;100205.19;;;20.33;71.77
62122;BME280;48108;47.532;19.084;2022-07-15T05:08:45;100209.00;;;20.03;75.50
62122;BME280;48108;47.532;19.084;2022-07-15T05:11:48;100212.59;;;20.04;74.43
62122;BME280;48108;47.532;19.084;2022-07-15T05:14:54;100197.28;;;20.20;74.26
62122;BME280;48108;47.532;19.084;2022-07-15T05:17:57;100207.56;;;20.29;73.83
62122;BME280;48108;47.532;19.084;2022-07-15T05:21:01;100213.37;;;20.33;72.73
62122;BME280;48108;47.532;19.084;2022-07-15T05:24:05;100200.53;;;20.33;73.70
62122;BME280;48108;47.532;19.084;2022-07-15T05:27:28;100205.19;;;20.33;72.20
62122;BME280;48108;47.532;19.084;2022-07-15T05:30:31;100211.72;;;20.32;73.83
62122;BME280;48108;47.532;19.084;2022-07-15T05:33:34;100212.78;;;20.31;74.43
62122;BME280;48108;47.532;19.084;2022-07-15T05:36:39;100223.72;;;20.31;73.51
62122;BME280;48108;47.532;19.084;2022-07-15T05:39:41;100226.97;;;20.28;73.17
62122;BME280;48108;47.532;19.084;2022-07-15T05:42:58;100226.84;;;20.23;73.71
62122;BME280;48108;47.532;19.084;2022-07-15T05:46:02;100243.03;;;20.24;75.17
62122;BME280;48108;47.532;19.084;2022-07-15T05:49:05;100250.16;;;20.25;74.54
62122;BME280;48108;47.532;19.084;2022-07-15T05:52:08;100245.22;;;20.10;74.99
62122;BME280;48108;47.532;19.084;2022-07-15T05:55:12;100237.94;;;20.16;77.98
62122;BME280;48108;47.532;19.084;2022-07-15T05:58:15;100255.66;;;20.13;75.86
62122;BME280;48108;47.532;19.084;2022-07-15T06:01:18;100272.41;;;20.17;75.66
62122;BME280;48108;47.532;19.084;2022-07-15T06:04:21;100273.16;;;20.12;76.13
62122;BME280;48108;47.532;19.084;2022-07-15T06:07:24;100290.50;;;20.06;76.79
62122;BME280;48108;47.532;19.084;2022-07-15T06:10:27;100318.78;;;20.00;76.78
62122;BME280;48108;47.532;19.084;2022-07-15T06:13:31;100328.69;;;20.01;77.40
62122;BME280;48108;47.532;19.084;2022-07-15T06:16:35;100328.31;;;19.98;77.07
62122;BME280;48108;47.532;19.084;2022-07-15T06:19:39;100329.63;;;19.95;77.91
62122;BME280;48108;47.532;19.084;2022-07-15T06:22:42;100327.28;;;19.87;77.67
62122;BME280;48108;47.532;19.084;2022-07-15T06:25:46;100310.66;;;19.77;78.21
62122;BME280;48108;47.532;19.084;2022-07-15T06:28:49;100299.62;;;19.72;79.69
62122;BME280;48108;47.532;19.084;2022-07-15T06:31:55;100300.56;;;19.65;79.08
62122;BME280;48108;47.532;19.084;2022-07-15T06:34:58;100306.94;;;19.83;78.54
62122;BME280;48108;47.532;19.084;2022-07-15T06:38:01;100319.22;;;19.80;78.92
62122;BME280;48108;47.532;19.084;2022-07-15T06:41:05;100285.00;;;19.78;79.04
62122;BME280;48108;47.532;19.084;2022-07-15T06:44:08;100283.25;;;19.72;79.83
62122;BME280;48108;47.532;19.084;2022-07-15T06:47:16;100295.47;;;19.81;79.15
62122;BME280;48108;47.532;19.084;2022-07-15T06:50:19;100311.47;;;19.77;79.85
62122;BME280;48108;47.532;19.084;2022-07-15T06:53:25;100316.38;;;19.75;80.72
62122;BME280;48108;47.532;19.084;2022-07-15T06:56:29;100318.13;;;19.81;80.00
62122;BME280;48108;47.532;19.084;2022-07-15T06:59:32;100305.66;;;19.85;79.62
62122;BME280;48108;47.532;19.084;2022-07-15T07:02:39;100310.06;;;19.86;79.80
62122;BME280;48108;47.532;19.084;2022-07-15T07:06:09;100313.81;;;19.97;79.01
62122;BME280;48108;47.532;19.084;2022-07-15T07:09:12;100342.56;;;20.00;78.78
62122;BME280;48108;47.532;19.084;2022-07-15T07:12:15;100369.06;;;19.99;79.31
62122;BME280;48108;47.532;19.084;2022-07-15T07:15:18;100392.56;;;20.00;79.95
62122;BME280;48108;47.532;19.084;2022-07-15T07:18:24;100387.38;;;19.99;79.65
62122;BME280;48108;47.532;19.084;2022-07-15T07:21:27;100410.88;;;20.00;79.93
62122;BME280;48108;47.532;19.084;2022-07-15T07:24:34;100410.66;;;20.01;79.62
62122;BME280;48108;47.532;19.084;2022-07-15T07:27:37;100410.88;;;20.11;78.68
62122;BME280;48108;47.532;19.084;2022-07-15T07:30:40;100419.53;;;20.20;77.55
62122;BME280;48108;47.532;19.084;2022-07-15T07:33:43;100408.25;;;20.16;76.76
62122;BME280;48108;47.532;19.084;2022-07-15T07:36:48;100397.66;;;20.20;76.66
62122;BME280;48108;47.532;19.084;2022-07-15T07:39:51;100387.66;;;20.26;76.17
62122;BME280;48108;47.532;19.084;2022-07-15T07:42:54;100386.97;;;20.30;75.81
62122;BME280;48108;47.532;19.084;2022-07-15T07:45:58;100394.91;;;20.32;75.98
62122;BME280;48108;47.532;19.084;2022-07-15T07:49:02;100396.31;;;20.34;76.04
62122;BME280;48108;47.532;19.084;2022-07-15T07:52:25;100410.69;;;20.42;75.61
62122;BME280;48108;47.532;19.084;2022-07-15T07:55:30;100410.44;;;20.43;75.48
62122;BME280;48108;47.532;19.084;2022-07-15T07:58:33;100412.34;;;20.43;75.57
62122;BME280;48108;47.532;19.084;2022-07-15T08:01:36;100421.25;;;20.50;75.62
62122;BME280;48108;47.532;19.084;2022-07-15T08:04:39;100422.69;;;20.52;75.15
62122;BME280;48108;47.532;19.084;2022-07-15T08:07:43;100403.91;;;20.44;75.47
62122;BME280;48108;47.532;19.084;2022-07-15T08:10:48;100425.22;;;20.42;75.79
62122;BME280;48108;47.532;19.084;2022-07-15T08:13:51;100399.03;;;20.46;76.01
62122;BME280;48108;47.532;19.084;2022-07-15T08:16:55;100412.69;;;20.58;75.35
62122;BME280;48108;47.532;19.084;2022-07-15T08:19:58;100434.34;;;20.59;75.21
62122;BME280;48108;47.532;19.084;2022-07-15T08:23:02;100434.69;;;20.63;75.51
62122;BME280;48108;47.532;19.084;2022-07-15T08:26:05;100452.88;;;20.69;75.91
62122;BME280;48108;47.532;19.084;2022-07-15T08:29:09;100433.22;;;20.72;75.08
62122;BME280;48108;47.532;19.084;2022-07-15T08:32:14;100438.66;;;20.84;74.71
62122;BME280;48108;47.532;19.084;2022-07-15T08:35:17;100433.28;;;20.89;74.66
62122;BME280;48108;47.532;19.084;2022-07-15T08:38:21;100426.00;;;20.95;74.76
62122;BME280;48108;47.532;19.084;2022-07-15T08:41:25;100439.03;;;21.04;74.84
62122;BME280;48108;47.532;19.084;2022-07-15T08:44:28;100445.34;;;21.05;74.03
62122;BME280;48108;47.532;19.084;2022-07-15T08:47:31;100441.88;;;21.10;74.36
62122;BME280;48108;47.532;19.084;2022-07-15T08:50:55;100443.63;;;21.16;74.96
62122;BME280;48108;47.532;19.084;2022-07-15T08:53:59;100450.75;;;21.17;73.76
62122;BME280;48108;47.532;19.084;2022-07-15T08:57:01;100442.59;;;21.05;75.42
62122;BME280;48108;47.532;19.084;2022-07-15T09:00:06;100447.41;;;20.98;77.54
62122;BME280;48108;47.532;19.084;2022-07-15T09:03:13;100469.44;;;20.91;77.68
62122;BME280;48108;47.532;19.084;2022-07-15T09:06:45;100477.03;;;21.01;77.12
62122;BME280;48108;47.532;19.084;2022-07-15T09:09:50;100470.75;;;21.17;77.40
62122;BME280;48108;47.532;19.084;2022-07-15T09:12:54;100455.41;;;21.16;77.44
62122;BME280;48108;47.532;19.084;2022-07-15T09:19:14;100447.53;;;21.20;76.82
62122;BME280;48108;47.532;19.084;2022-07-15T09:22:17;100492.59;;;21.29;75.44
62122;BME280;48108;47.532;19.084;2022-07-15T09:25:22;100485.47;;;21.28;76.07
62122;BME280;48108;47.532;19.084;2022-07-15T09:28:39;100468.69;;;21.24;76.21
62122;BME280;48108;47.532;19.084;2022-07-15T09:31:43;100454.25;;;21.29;76.16
62122;BME280;48108;47.532;19.084;2022-07-15T09:35:06;100465.44;;;21.39;73.46
62122;BME280;48108;47.532;19.084;2022-07-15T09:38:37;100474.56;;;21.45;74.62
62122;BME280;48108;47.532;19.084;2022-07-15T09:41:44;100465.78;;;21.60;72.22
62122;BME280;48108;47.532;19.084;2022-07-15T09:44:47;100463.97;;;21.82;70.52
62122;BME280;48108;47.532;19.084;2022-07-15T09:48:12;100464.59;;;21.89;71.39
62122;BME280;48108;47.532;19.084;2022-07-15T09:51:16;100467.91;;;22.25;67.17
62122;BME280;48108;47.532;19.084;2022-07-15T09:54:19;100460.00;;;22.51;66.11
62122;BME280;48108;47.532;19.084;2022-07-15T09:57:22;100457.06;;;22.79;64.73
62122;BME280;48108;47.532;19.084;2022-07-15T10:00:26;100465.97;;;23.14;62.17
62122;BME280;48108;47.532;19.084;2022-07-15T10:03:32;100473.50;;;23.23;60.76
62122;BME280;48108;47.532;19.084;2022-07-15T10:06:37;100483.97;;;23.26;60.39
62122;BME280;48108;47.532;19.084;2022-07-15T10:09:41;100478.38;;;23.43;60.60
62122;BME280;48108;47.532;19.084;2022-07-15T10:13:02;100469.59;;;23.46;59.41
62122;BME280;48108;47.532;19.084;2022-07-15T10:19:55;100393.47;;;23.47;59.85
62122;BME280;48108;47.532;19.084;2022-07-15T10:23:22;100363.53;;;23.50;50.24
62122;BME280;48108;47.532;19.084;2022-07-15T10:26:56;100393.63;;;23.67;48.80
62122;BME280;48108;47.532;19.084;2022-07-15T10:30:06;100404.16;;;23.75;47.79
62122;BME280;48108;47.532;19.084;2022-07-15T10:33:10;100411.34;;;23.82;46.14
62122;BME280;48108;47.532;19.084;2022-07-15T10:36:16;100399.00;;;23.84;43.16
62122;BME280;48108;47.532;19.084;2022-07-15T10:39:21;100382.91;;;24.08;42.57
62122;BME280;48108;47.532;19.084;2022-07-15T10:42:25;100385.16;;;24.16;40.73
62122;BME280;48108;47.532;19.084;2022-07-15T10:45:28;100383.13;;;24.54;39.17
62122;BME280;48108;47.532;19.084;2022-07-15T10:48:31;100385.41;;;24.88;39.17
62122;BME280;48108;47.532;19.084;2022-07-15T10:54:39;100389.56;;;25.83;36.96
62122;BME280;48108;47.532;19.084;2022-07-15T11:00:45;100387.34;;;27.09;34.50
62122;BME280;48108;47.532;19.084;2022-07-15T11:04:15;100389.37;;;27.38;31.71
62122;BME280;48108;47.532;19.084;2022-07-15T11:07:20;100379.87;;;27.15;31.95
62122;BME280;48108;47.532;19.084;2022-07-15T11:10:25;100386.13;;;26.86;31.78
62122;BME280;48108;47.532;19.084;2022-07-15T11:13:33;100391.88;;;26.51;30.47
62122;BME280;48108;47.532;19.084;2022-07-15T11:16:35;100386.34;;;26.51;30.18
62122;BME280;48108;47.532;19.084;2022-07-15T11:19:39;100383.09;;;26.28;29.35
62122;BME280;48108;47.532;19.084;2022-07-15T11:22:45;100387.25;;;26.20;28.79
62122;BME280;48108;47.532;19.084;2022-07-15T11:25:53;100390.06;;;26.10;30.09
62122;BME280;48108;47.532;19.084;2022-07-15T11:28:56;100387.00;;;26.17;30.41
62122;BME280;48108;47.532;19.084;2022-07-15T11:32:03;100373.69;;;26.34;30.74
62122;BME280;48108;47.532;19.084;2022-07-15T11:35:07;100376.94;;;26.57;29.47
62122;BME280;48108;47.532;19.084;2022-07-15T11:38:10;100388.28;;;26.95;29.34
62122;BME280;48108;47.532;19.084;2022-07-15T11:41:13;100394.50;;;27.21;30.36
62122;BME280;48108;47.532;19.084;2022-07-15T11:44:45;100387.97;;;27.01;29.68
62122;BME280;48108;47.532;19.084;2022-07-15T11:47:52;100375.34;;;26.85;29.33
62122;BME280;48108;47.532;19.084;2022-07-15T11:50:57;100385.91;;;26.78;29.12
62122;BME280;48108;47.532;19.084;2022-07-15T11:53:59;100384.97;;;26.98;29.19
62122;BME280;48108;47.532;19.084;2022-07-15T11:57:04;100388.69;;;27.17;30.22
62122;BME280;48108;47.532;19.084;2022-07-15T12:00:09;100380.34;;;27.27;28.32
62122;BME280;48108;47.532;19.084;2022-07-15T12:03:13;100379.69;;;26.96;27.69
62122;BME280;48108;47.532;19.084;2022-07-15T12:06:19;100381.06;;;26.59;26.87
62122;BME280;48108;47.532;19.084;2022-07-15T12:09:25;100395.50;;;26.36;27.11
62122;BME280;48108;47.532;19.084;2022-07-15T12:12:28;100389.75;;;26.17;26.66
62122;BME280;48108;47.532;19.084;2022-07-15T12:15:32;100396.47;;;25.85;27.71
62122;BME280;48108;47.532;19.084;2022-07-15T12:18:36;100400.03;;;25.96;27.71
62122;BME280;48108;47.532;19.084;2022-07-15T12:21:39;100399.72;;;26.13;27.63
62122;BME280;48108;47.532;19.084;2022-07-15T12:24:45;100405.69;;;26.51;26.95
62122;BME280;48108;47.532;19.084;2022-07-15T12:27:49;100401.16;;;27.14;26.29
62122;BME280;48108;47.532;19.084;2022-07-15T12:30:52;100401.69;;;28.95;24.18
62122;BME280;48108;47.532;19.084;2022-07-15T12:33:55;100399.56;;;32.08;20.52
62122;BME280;48108;47.532;19.084;2022-07-15T12:36:59;100377.38;;;34.71;18.45
62122;BME280;48108;47.532;19.084;2022-07-15T12:43:07;100364.69;;;38.16;14.45
62122;BME280;48108;47.532;19.084;2022-07-15T12:46:11;100362.00;;;38.54;14.86
62122;BME280;48108;47.532;19.084;2022-07-15T12:49:51;100358.63;;;39.23;13.99
62122;BME280;48108;47.532;19.084;2022-07-15T12:52:55;100367.25;;;38.56;14.43
62122;BME280;48108;47.532;19.084;2022-07-15T12:55:58;100358.06;;;38.78;14.13
62122;BME280;48108;47.532;19.084;2022-07-15T12:59:02;100351.34;;;39.22;14.06
62122;BME280;48108;47.532;19.084;2022-07-15T13:02:06;100355.37;;;39.86;13.27
62122;BME280;48108;47.532;19.084;2022-07-15T13:05:09;100364.00;;;39.51;13.25
62122;BME280;48108;47.532;19.084;2022-07-15T13:08:24;100354.72;;;39.51;13.40
62122;BME280;48108;47.532;19.084;2022-07-15T13:11:27;100350.94;;;39.85;13.47
62122;BME280;48108;47.532;19.084;2022-07-15T13:14:30;100349.91;;;39.97;12.72
62122;BME280;48108;47.532;19.084;2022-07-15T13:17:33;100351.53;;;41.12;11.78
62122;BME280;48108;47.532;19.084;2022-07-15T13:20:38;100360.84;;;40.52;11.95
62122;BME280;48108;47.532;19.084;2022-07-15T13:23:40;100362.69;;;37.84;13.69
62122;BME280;48108;47.532;19.084;2022-07-15T13:26:44;100353.09;;;37.54;13.38
62122;BME280;48108;47.532;19.084;2022-07-15T13:29:47;100352.66;;;39.48;12.08
62122;BME280;48108;47.532;19.084;2022-07-15T13:32:50;100359.31;;;39.59;12.13
62122;BME280;48108;47.532;19.084;2022-07-15T13:35:53;100366.88;;;37.47;13.51
62122;BME280;48108;47.532;19.084;2022-07-15T13:38:58;100369.66;;;36.01;14.65
62122;BME280;48108;47.532;19.084;2022-07-15T13:42:01;100374.03;;;34.78;15.78
62122;BME280;48108;47.532;19.084;2022-07-15T13:45:05;100368.41;;;37.56;14.05
62122;BME280;48108;47.532;19.084;2022-07-15T13:48:09;100372.91;;;38.40;13.07
62122;BME280;48108;47.532;19.084;2022-07-15T13:51:12;100366.41;;;37.88;13.10
62122;BME280;48108;47.532;19.084;2022-07-15T13:54:27;100374.94;;;39.33;12.44
62122;BME280;48108;47.532;19.084;2022-07-15T13:57:30;100373.44;;;39.00;12.38
62122;BME280;48108;47.532;19.084;2022-07-15T14:00:33;100378.84;;;38.70;12.20
62122;BME280;48108;47.532;19.084;2022-07-15T14:03:38;100385.66;;;39.47;11.88
62122;BME280;48108;47.532;19.084;2022-07-15T14:06:47;100377.34;;;40.00;11.97
62122;BME280;48108;47.532;19.084;2022-07-15T14:09:50;100371.56;;;39.28;11.89
62122;BME280;48108;47.532;19.084;2022-07-15T14:12:53;100382.34;;;37.84;13.26
62122;BME280;48108;47.532;19.084;2022-07-15T14:15:57;100390.50;;;36.37;14.26
62122;BME280;48108;47.532;19.084;2022-07-15T14:18:59;100393.00;;;34.72;15.11
62122;BME280;48108;47.532;19.084;2022-07-15T14:22:03;100386.63;;;33.48;16.56
62122;BME280;48108;47.532;19.084;2022-07-15T14:25:07;100392.28;;;32.29;17.69
62122;BME280;48108;47.532;19.084;2022-07-15T14:28:12;100388.94;;;32.10;18.18
62122;BME280;48108;47.532;19.084;2022-07-15T14:31:15;100384.84;;;31.85;18.50
62122;BME280;48108;47.532;19.084;2022-07-15T14:34:20;100388.53;;;31.40;18.56
62122;BME280;48108;47.532;19.084;2022-07-15T14:37:22;100391.66;;;30.80;19.00
62122;BME280;48108;47.532;19.084;2022-07-15T14:40:37;100386.53;;;30.46;18.24
62122;BME280;48108;47.532;19.084;2022-07-15T14:43:40;100386.13;;;30.53;18.69
62122;BME280;48108;47.532;19.084;2022-07-15T14:46:43;100393.53;;;30.43;19.10
62122;BME280;48108;47.532;19.084;2022-07-15T14:49:46;100376.16;;;30.24;19.46
62122;BME280;48108;47.532;19.084;2022-07-15T14:52:49;100383.47;;;30.34;19.18
62122;BME280;48108;47.532;19.084;2022-07-15T14:55:52;100386.00;;;29.89;19.99
62122;BME280;48108;47.532;19.084;2022-07-15T14:58:55;100390.28;;;29.34;20.41
62122;BME280;48108;47.532;19.084;2022-07-15T15:01:59;100386.31;;;29.22;20.18
62122;BME280;48108;47.532;19.084;2022-07-15T15:05:03;100393.69;;;29.12;20.16
62122;BME280;48108;47.532;19.084;2022-07-15T15:08:07;100395.44;;;29.08;19.90
62122;BME280;48108;47.532;19.084;2022-07-15T15:11:09;100386.31;;;28.84;20.07
62122;BME280;48108;47.532;19.084;2022-07-15T15:14:30;100392.94;;;28.88;19.92
62122;BME280;48108;47.532;19.084;2022-07-15T15:17:33;100386.47;;;28.92;20.09
62122;BME280;48108;47.532;19.084;2022-07-15T15:20:42;100393.00;;;28.83;20.53
62122;BME280;48108;47.532;19.084;2022-07-15T15:28:15;100391.28;;;28.49;20.62
62122;BME280;48108;47.532;19.084;2022-07-15T15:31:19;100391.81;;;28.03;21.62
62122;BME280;48108;47.532;19.084;2022-07-15T15:34:23;100396.44;;;27.84;21.80
62122;BME280;48108;47.532;19.084;2022-07-15T15:37:26;100393.78;;;27.68;22.16
62122;BME280;48108;47.532;19.084;2022-07-15T15:40:28;100393.56;;;27.65;22.37
62122;BME280;48108;47.532;19.084;2022-07-15T15:43:31;100390.31;;;27.52;23.00
62122;BME280;48108;47.532;19.084;2022-07-15T15:46:34;100388.88;;;27.31;23.57
